Time;durP1;ratioP1;P1;durP2;ratioP2;P2;SDS_P1;SDS_P2;PMS_P1;PMS_P2;Temp;Humidity;BMP_temperature;BMP_pressure;BME280_temperature;BME280_humidity;BME280_pressure;Samples;Min_cycle;Max_cycle;Signal;HPM_P1;HPM_P2
2022/12/25 00:02:04;;;;;;;20.65;5.70;;;;;;;;;;7401754;19;20019;-70
2022/12/25 00:04:30;;;;;;;18.23;5.90;;;;;;;;;;7395907;19;20040;-70
2022/12/25 00:06:55;;;;;;;20.23;5.15;;;;;;;;;;7396941;19;20106;-70
2022/12/25 00:09:21;;;;;;;13.35;5.78;;;;;;;;;;7397334;19;19991;-70
2022/12/25 00:11:46;;;;;;;16.83;6.10;;;;;;;;;;7396975;19;19998;-71
2022/12/25 00:14:11;;;;;;;21.85;7.60;;;;;;;;;;7395903;19;19991;-72
2022/12/25 00:16:37;;;;;;;18.27;6.07;;;;;;;;;;7394903;19;19993;-71
2022/12/25 00:19:02;;;;;;;16.10;5.30;;;;;;;;;;7392636;19;20003;-72
2022/12/25 00:21:27;;;;;;;18.45;6.75;;;;;;;;;;7396713;19;20019;-71
2022/12/25 00:23:54;;;;;;;13.98;6.38;;;;;;;;;;7394644;19;19994;-71
2022/12/25 00:26:19;;;;;;;18.70;5.85;;;;;;;;;;7396843;19;19998;-70
2022/12/25 00:28:45;;;;;;;17.20;5.85;;;;;;;;;;7394629;19;19991;-71
2022/12/25 00:31:14;;;;;;;15.52;5.75;;;;;;;;;;7396861;19;20460;-71
2022/12/25 00:33:41;;;;;;;17.63;6.63;;;;;;;;;;7400044;19;20080;-72
2022/12/25 00:36:08;;;;;;;15.32;5.68;;;;;;;;;;7394888;19;19999;-72
2022/12/25 00:38:35;;;;;;;16.88;6.55;;;;;;;;;;7394365;19;20054;-70
2022/12/25 00:42:17;;;;;;;15.00;6.45;;;;;;;;;;7396523;19;20012;-70
2022/12/25 00:44:10;;;;;;;12.90;6.05;;;;;;;;;;7394588;19;20037;-70
2022/12/25 00:46:35;;;;;;;15.95;6.70;;;;;;;;;;7396286;19;19995;-71
2022/12/25 00:49:01;;;;;;;21.40;6.88;;;;;;;;;;7393520;19;20020;-70
2022/12/25 00:51:27;;;;;;;18.23;7.45;;;;;;;;;;7395996;19;20422;-70
2022/12/25 00:53:52;;;;;;;26.13;7.30;;;;;;;;;;7394537;19;20090;-69
2022/12/25 00:56:18;;;;;;;21.55;7.28;;;;;;;;;;7392533;19;20366;-71
2022/12/25 00:58:43;;;;;;;19.73;6.80;;;;;;;;;;7394111;19;19999;-71
2022/12/25 01:01:10;;;;;;;23.27;6.30;;;;;;;;;;7395753;19;20338;-71
2022/12/25 01:03:35;;;;;;;20.88;6.47;;;;;;;;;;7394160;19;19991;-72
2022/12/25 01:06:03;;;;;;;19.20;6.47;;;;;;;;;;7394877;19;20015;-70
2022/12/25 01:08:31;;;;;;;16.83;6.93;;;;;;;;;;7390993;19;20002;-72
2022/12/25 01:11:02;;;;;;;19.15;7.18;;;;;;;;;;7395081;19;20003;-70
2022/12/25 01:13:29;;;;;;;18.42;7.13;;;;;;;;;;7394126;19;20006;-71
2022/12/25 01:15:54;;;;;;;20.35;6.45;;;;;;;;;;7393967;19;19995;-71
2022/12/25 01:18:21;;;;;;;17.42;6.97;;;;;;;;;;7393071;19;20464;-72
2022/12/25 01:20:47;;;;;;;15.70;6.50;;;;;;;;;;7394933;19;20006;-73
2022/12/25 01:23:13;;;;;;;18.33;7.55;;;;;;;;;;7393567;19;20006;-73
2022/12/25 01:25:38;;;;;;;24.45;7.72;;;;;;;;;;7394622;19;20491;-73
2022/12/25 01:28:04;;;;;;;15.93;7.05;;;;;;;;;;7392401;19;20002;-73
2022/12/25 01:30:30;;;;;;;17.45;6.88;;;;;;;;;;7394534;19;19999;-73
2022/12/25 01:32:55;;;;;;;19.33;6.85;;;;;;;;;;7393406;19;20357;-73
2022/12/25 01:35:21;;;;;;;19.98;7.50;;;;;;;;;;7392306;19;20002;-72
2022/12/25 01:37:46;;;;;;;27.10;6.88;;;;;;;;;;7393683;19;20465;-72
2022/12/25 01:40:12;;;;;;;30.52;7.80;;;;;;;;;;7393877;19;20022;-72
2022/12/25 01:42:37;;;;;;;21.88;7.25;;;;;;;;;;7393154;19;20032;-73
2022/12/25 01:45:32;;;;;;;18.88;6.72;;;;;;;;;;7394642;19;20002;-74
2022/12/25 01:47:59;;;;;;;15.60;6.50;;;;;;;;;;7393229;19;20336;-73
2022/12/25 01:50:25;;;;;;;27.80;6.93;;;;;;;;;;7393797;19;20027;-71
2022/12/25 01:52:51;;;;;;;15.68;6.88;;;;;;;;;;7395407;19;20003;-72
2022/12/25 01:55:17;;;;;;;20.60;6.55;;;;;;;;;;7394368;19;19991;-72
2022/12/25 01:57:43;;;;;;;16.15;6.25;;;;;;;;;;7391717;19;20026;-72
2022/12/25 02:00:10;;;;;;;14.05;6.13;;;;;;;;;;7392214;19;20361;-72
2022/12/25 02:02:37;;;;;;;14.15;6.07;;;;;;;;;;7392190;19;19999;-72
2022/12/25 02:05:08;;;;;;;16.42;6.50;;;;;;;;;;7391803;19;20460;-72
2022/12/25 02:07:36;;;;;;;17.02;6.55;;;;;;;;;;7393547;19;20341;-72
2022/12/25 02:10:01;;;;;;;16.35;6.43;;;;;;;;;;7391703;19;20015;-72
2022/12/25 02:12:30;;;;;;;25.73;6.85;;;;;;;;;;7392759;19;20007;-73
2022/12/25 02:15:02;;;;;;;16.50;6.97;;;;;;;;;;7392399;19;20002;-73
2022/12/25 02:17:52;;;;;;;15.65;6.30;;;;;;;;;;7392567;19;20003;-72
2022/12/25 02:20:46;;;;;;;20.00;7.38;;;;;;;;;;7391965;19;19999;-73
2022/12/25 02:23:33;;;;;;;19.92;6.43;;;;;;;;;;7391734;19;20409;-72
2022/12/25 02:26:39;;;;;;;18.35;6.85;;;;;;;;;;7392665;19;20019;-72
2022/12/25 02:29:11;;;;;;;19.38;6.88;;;;;;;;;;7392486;19;20057;-73
2022/12/25 02:31:43;;;;;;;25.00;6.60;;;;;;;;;;7392600;19;20005;-73
2022/12/25 02:34:29;;;;;;;17.35;6.40;;;;;;;;;;7391208;19;20070;-73
2022/12/25 02:37:11;;;;;;;17.85;6.72;;;;;;;;;;7390800;19;20103;-72
2022/12/25 02:39:59;;;;;;;;;;;;;;;;;;7392883;19;20003;-72
2022/12/25 03:07:38;;;;;;;18.95;6.28;;;;;;;;;;7391783;19;20356;-72
2022/12/25 03:12:58;;;;;;;16.75;6.28;;;;;;;;;;7390324;19;20005;-72
2022/12/25 03:18:13;;;;;;;13.32;6.13;;;;;;;;;;7390491;19;20328;-73
2022/12/25 03:28:56;;;;;;;25.73;6.93;;;;;;;;;;7389972;19;20018;-73
2022/12/25 03:31:37;;;;;;;19.45;7.10;;;;;;;;;;7394815;19;19998;-73
2022/12/25 04:38:10;;;;;;;19.90;7.07;;;;;;;;;;7395571;19;20018;-72
2022/12/25 04:40:35;;;;;;;21.73;8.07;;;;;;;;;;7396376;19;20002;-72
2022/12/25 04:43:01;;;;;;;23.48;8.75;;;;;;;;;;7392598;19;19999;-72
2022/12/25 04:45:26;;;;;;;22.80;8.35;;;;;;;;;;7396330;19;20017;-74
2022/12/25 04:47:51;;;;;;;20.88;7.78;;;;;;;;;;7395042;19;20003;-72
2022/12/25 04:50:17;;;;;;;17.80;7.72;;;;;;;;;;7396026;19;19994;-73
2022/12/25 04:52:42;;;;;;;20.58;7.53;;;;;;;;;;7394589;19;20029;-72
2022/12/25 04:55:09;;;;;;;14.52;7.95;;;;;;;;;;7395430;19;20014;-72
2022/12/25 04:57:35;;;;;;;22.60;7.50;;;;;;;;;;7393528;19;20434;-72
2022/12/25 05:00:00;;;;;;;19.73;8.57;;;;;;;;;;7391614;19;20103;-72
2022/12/25 05:02:26;;;;;;;17.20;7.80;;;;;;;;;;7390824;19;20022;-72
2022/12/25 05:04:51;;;;;;;21.30;8.23;;;;;;;;;;7390353;19;20026;-73
2022/12/25 05:07:16;;;;;;;22.90;8.52;;;;;;;;;;7391474;19;19998;-73
2022/12/25 05:09:42;;;;;;;18.90;8.07;;;;;;;;;;7392445;19;19998;-73
2022/12/25 05:12:08;;;;;;;19.83;8.40;;;;;;;;;;7393097;19;20103;-72
2022/12/25 05:14:33;;;;;;;18.33;7.45;;;;;;;;;;7393854;19;20059;-72
2022/12/25 05:16:59;;;;;;;12.93;6.88;;;;;;;;;;7392184;19;20020;-72
2022/12/25 05:19:25;;;;;;;18.48;7.20;;;;;;;;;;7392494;19;19999;-73
2022/12/25 05:21:51;;;;;;;18.60;7.75;;;;;;;;;;7394874;19;20023;-72
2022/12/25 05:24:16;;;;;;;20.40;7.35;;;;;;;;;;7392544;19;19998;-71
2022/12/25 05:26:41;;;;;;;18.25;7.95;;;;;;;;;;7394991;19;20456;-72
2022/12/25 05:29:07;;;;;;;16.83;7.78;;;;;;;;;;7393048;19;19998;-72
2022/12/25 05:31:32;;;;;;;17.80;6.80;;;;;;;;;;7393412;19;20002;-72
2022/12/25 05:33:57;;;;;;;20.88;7.55;;;;;;;;;;7393071;19;20012;-72
2022/12/25 05:36:23;;;;;;;18.00;7.18;;;;;;;;;;7393114;19;19991;-72
2022/12/25 05:38:49;;;;;;;17.98;7.40;;;;;;;;;;7393010;19;20074;-71
2022/12/25 05:41:14;;;;;;;18.15;8.07;;;;;;;;;;7393089;19;20007;-73
2022/12/25 05:43:40;;;;;;;20.00;7.93;;;;;;;;;;7392768;19;20377;-72
2022/12/25 05:46:07;;;;;;;15.02;7.53;;;;;;;;;;7397399;19;20058;-72
2022/12/25 05:48:35;;;;;;;16.85;7.35;;;;;;;;;;7392580;19;20006;-72
2022/12/25 05:51:05;;;;;;;17.02;7.72;;;;;;;;;;7394222;19;19999;-72
2022/12/25 05:53:30;;;;;;;19.20;7.82;;;;;;;;;;7390810;19;20059;-72
2022/12/25 05:56:01;;;;;;;18.92;8.18;;;;;;;;;;7398024;19;20003;-72
2022/12/25 05:58:26;;;;;;;14.27;7.10;;;;;;;;;;7391585;19;20006;-72
2022/12/25 06:00:51;;;;;;;18.48;7.75;;;;;;;;;;7393637;19;20341;-72
2022/12/25 06:03:17;;;;;;;15.85;7.68;;;;;;;;;;7392295;19;19999;-71
2022/12/25 06:05:42;;;;;;;21.63;8.48;;;;;;;;;;7393056;19;20009;-72
2022/12/25 06:08:07;;;;;;;24.13;9.60;;;;;;;;;;7392455;19;19999;-72
2022/12/25 06:10:33;;;;;;;17.40;7.93;;;;;;;;;;7397463;19;19991;-71
2022/12/25 06:12:58;;;;;;;25.77;8.13;;;;;;;;;;7391876;19;20001;-75
2022/12/25 06:15:23;;;;;;;21.42;8.15;;;;;;;;;;7392879;19;20007;-72
2022/12/25 06:17:48;;;;;;;17.52;8.88;;;;;;;;;;7392523;19;20341;-72
2022/12/25 06:20:14;;;;;;;24.02;9.20;;;;;;;;;;7393422;19;20022;-71
2022/12/25 06:22:39;;;;;;;22.48;9.15;;;;;;;;;;7390440;19;20007;-71
2022/12/25 06:25:05;;;;;;;17.95;9.52;;;;;;;;;;7393021;19;19999;-72
2022/12/25 06:27:30;;;;;;;19.85;8.50;;;;;;;;;;7392506;19;20020;-73
2022/12/25 06:29:56;;;;;;;26.58;9.98;;;;;;;;;;7392978;19;19995;-72
2022/12/25 06:32:21;;;;;;;20.92;9.15;;;;;;;;;;7392188;19;19995;-72
2022/12/25 06:34:46;;;;;;;23.65;10.77;;;;;;;;;;7392482;19;20003;-72
2022/12/25 06:37:11;;;;;;;27.55;9.98;;;;;;;;;;7390009;19;19998;-73
2022/12/25 06:39:37;;;;;;;24.63;10.35;;;;;;;;;;7392750;19;19999;-72
2022/12/25 06:42:02;;;;;;;24.08;10.13;;;;;;;;;;7392688;19;20001;-73
2022/12/25 06:44:28;;;;;;;23.48;10.88;;;;;;;;;;7391139;19;20015;-72
2022/12/25 06:46:54;;;;;;;26.08;9.85;;;;;;;;;;7392403;19;20017;-72
2022/12/25 06:49:20;;;;;;;22.67;10.80;;;;;;;;;;7390789;19;20424;-72
2022/12/25 06:51:45;;;;;;;27.30;12.07;;;;;;;;;;7392311;19;20019;-72
2022/12/25 06:54:11;;;;;;;21.33;9.70;;;;;;;;;;7390985;19;19994;-73
2022/12/25 06:56:37;;;;;;;21.90;9.70;;;;;;;;;;7391175;19;20420;-73
2022/12/25 06:59:08;;;;;;;24.13;10.20;;;;;;;;;;7393896;19;19994;-73
2022/12/25 07:01:54;;;;;;;25.88;9.93;;;;;;;;;;7390667;19;20065;-73
2022/12/25 07:04:25;;;;;;;26.27;9.20;;;;;;;;;;7390533;19;19997;-72
2022/12/25 07:06:51;;;;;;;22.52;10.98;;;;;;;;;;7390507;19;20070;-72
2022/12/25 07:09:16;;;;;;;23.63;10.40;;;;;;;;;;7388671;19;19998;-72
2022/12/25 07:11:41;;;;;;;19.55;9.70;;;;;;;;;;7387749;19;20014;-71
2022/12/25 07:14:07;;;;;;;18.73;9.52;;;;;;;;;;7393888;19;20010;-72
2022/12/25 07:16:32;;;;;;;20.00;10.60;;;;;;;;;;7390203;19;20003;-72
2022/12/25 07:19:00;;;;;;;21.65;9.85;;;;;;;;;;7389622;19;20035;-75
2022/12/25 07:21:26;;;;;;;22.20;8.90;;;;;;;;;;7391052;19;19995;-76
2022/12/25 07:23:51;;;;;;;21.98;9.52;;;;;;;;;;7391621;19;19986;-74
2022/12/25 07:26:17;;;;;;;23.75;10.65;;;;;;;;;;7392540;19;19994;-73
2022/12/25 07:28:42;;;;;;;22.95;9.60;;;;;;;;;;7388960;19;20001;-74
2022/12/25 07:31:15;;;;;;;24.88;9.80;;;;;;;;;;7387971;19;20003;-73
2022/12/25 07:33:41;;;;;;;23.15;10.57;;;;;;;;;;7389318;19;19995;-73
2022/12/25 07:36:07;;;;;;;24.65;10.73;;;;;;;;;;7388378;19;19994;-73
2022/12/25 07:38:33;;;;;;;22.20;9.45;;;;;;;;;;7393252;19;19991;-75
2022/12/25 07:40:59;;;;;;;19.40;9.45;;;;;;;;;;7390402;19;19995;-74
2022/12/25 07:43:24;;;;;;;17.30;9.23;;;;;;;;;;7388672;19;19998;-76
2022/12/25 07:45:58;;;;;;;17.45;10.15;;;;;;;;;;7389882;19;19998;-75
2022/12/25 07:48:27;;;;;;;24.05;9.50;;;;;;;;;;7389542;19;20362;-73
2022/12/25 07:51:08;;;;;;;19.17;9.15;;;;;;;;;;7390483;19;19991;-73
2022/12/25 07:53:35;;;;;;;22.27;9.52;;;;;;;;;;7391457;19;19999;-74
2022/12/25 07:56:16;;;;;;;18.67;9.27;;;;;;;;;;7386525;19;20016;-73
2022/12/25 07:58:42;;;;;;;18.38;8.93;;;;;;;;;;7389483;19;20058;-73
2022/12/25 08:01:11;;;;;;;21.65;9.70;;;;;;;;;;7389459;19;20003;-74
2022/12/25 08:03:37;;;;;;;22.58;9.10;;;;;;;;;;7383083;19;20002;-74
2022/12/25 08:06:07;;;;;;;14.82;8.65;;;;;;;;;;7385197;19;19998;-76
2022/12/25 08:08:33;;;;;;;16.38;8.43;;;;;;;;;;7388403;19;20009;-74
2022/12/25 08:10:59;;;;;;;19.20;8.57;;;;;;;;;;7385459;19;20005;-74
2022/12/25 08:13:25;;;;;;;17.33;8.00;;;;;;;;;;7382540;19;19995;-74
2022/12/25 08:15:57;;;;;;;20.27;8.15;;;;;;;;;;7384061;19;20082;-74
2022/12/25 08:18:22;;;;;;;19.42;8.65;;;;;;;;;;7392500;19;19999;-74
2022/12/25 08:20:48;;;;;;;16.80;7.55;;;;;;;;;;7397232;19;20019;-74
2022/12/25 08:23:13;;;;;;;20.55;9.55;;;;;;;;;;7394724;19;20099;-74
2022/12/25 08:25:38;;;;;;;14.75;8.45;;;;;;;;;;7396533;19;20450;-74
2022/12/25 08:28:03;;;;;;;29.08;12.27;;;;;;;;;;7395578;19;19991;-73
2022/12/25 08:30:29;;;;;;;25.50;12.55;;;;;;;;;;7396275;19;19994;-75
2022/12/25 08:32:54;;;;;;;18.17;8.13;;;;;;;;;;7393635;19;19997;-73
2022/12/25 08:35:20;;;;;;;14.18;8.23;;;;;;;;;;7395524;19;20475;-74
2022/12/25 08:37:45;;;;;;;17.88;8.82;;;;;;;;;;7398500;19;20019;-74
2022/12/25 08:40:37;;;;;;;15.55;9.10;;;;;;;;;;7395783;19;20352;-73
2022/12/25 08:43:03;;;;;;;18.20;9.20;;;;;;;;;;7393361;19;19998;-73
2022/12/25 08:45:29;;;;;;;15.18;8.57;;;;;;;;;;7392530;19;19999;-74
2022/12/25 08:47:55;;;;;;;15.48;7.95;;;;;;;;;;7391815;19;20023;-73
2022/12/25 08:50:21;;;;;;;18.23;7.55;;;;;;;;;;7394928;19;20015;-73
2022/12/25 08:52:47;;;;;;;16.00;6.55;;;;;;;;;;7398448;19;20002;-74
2022/12/25 08:55:12;;;;;;;14.75;7.70;;;;;;;;;;7398139;19;20001;-74
2022/12/25 08:57:37;;;;;;;13.50;6.88;;;;;;;;;;7398224;19;20460;-73
2022/12/25 09:00:03;;;;;;;12.77;6.72;;;;;;;;;;7397463;19;20009;-74
2022/12/25 09:02:29;;;;;;;13.05;6.63;;;;;;;;;;7394581;19;20023;-73
2022/12/25 09:04:54;;;;;;;15.80;6.18;;;;;;;;;;7393707;19;19999;-74
2022/12/25 09:07:19;;;;;;;13.50;6.10;;;;;;;;;;7394693;19;20064;-74
2022/12/25 09:09:45;;;;;;;12.85;6.78;;;;;;;;;;7392760;19;20062;-74
2022/12/25 09:12:10;;;;;;;16.42;7.15;;;;;;;;;;7396034;19;20539;-74
2022/12/25 09:14:36;;;;;;;19.00;7.55;;;;;;;;;;7389770;19;20360;-74
2022/12/25 09:17:01;;;;;;;20.40;7.93;;;;;;;;;;7390824;19;19998;-74
2022/12/25 09:19:26;;;;;;;13.68;7.25;;;;;;;;;;7393006;19;19990;-73
2022/12/25 09:21:52;;;;;;;12.85;6.60;;;;;;;;;;7394430;19;20014;-74
2022/12/25 09:24:19;;;;;;;14.68;7.18;;;;;;;;;;7392827;19;20616;-75
2022/12/25 09:26:44;;;;;;;19.33;7.45;;;;;;;;;;7393701;19;19995;-73
2022/12/25 09:29:10;;;;;;;18.70;6.97;;;;;;;;;;7389666;19;19998;-74
2022/12/25 09:31:35;;;;;;;17.92;8.00;;;;;;;;;;7395150;19;19998;-74
2022/12/25 09:34:00;;;;;;;27.20;14.70;;;;;;;;;;7393954;19;19995;-76
2022/12/25 09:36:26;;;;;;;20.90;13.57;;;;;;;;;;7394237;19;19995;-77
2022/12/25 09:38:51;;;;;;;17.33;9.13;;;;;;;;;;7388245;19;20287;-76
2022/12/25 09:41:20;;;;;;;14.93;7.65;;;;;;;;;;7388817;19;20050;-76
2022/12/25 09:43:53;;;;;;;15.18;8.80;;;;;;;;;;7385923;19;20002;-76
2022/12/25 09:46:22;;;;;;;20.10;7.82;;;;;;;;;;7390074;19;20002;-76
2022/12/25 09:49:11;;;;;;;16.52;7.20;;;;;;;;;;7391148;19;20002;-76
2022/12/25 09:51:39;;;;;;;13.70;5.97;;;;;;;;;;7393914;19;20040;-75
2022/12/25 09:54:37;;;;;;;14.43;6.57;;;;;;;;;;7391059;19;20003;-76
2022/12/25 09:57:03;;;;;;;11.57;6.38;;;;;;;;;;7392799;19;20003;-77
2022/12/25 09:59:29;;;;;;;14.90;7.00;;;;;;;;;;7391447;19;20028;-77
2022/12/25 10:02:32;;;;;;;14.95;6.55;;;;;;;;;;7396575;19;19995;-76
2022/12/25 10:05:16;;;;;;;14.18;6.10;;;;;;;;;;7393075;19;20006;-75
2022/12/25 10:08:07;;;;;;;13.10;5.55;;;;;;;;;;7393005;19;20450;-75
2022/12/25 10:10:49;;;;;;;;;;;;;;;;;;7391655;19;20007;-76
2022/12/25 10:13:21;;;;;;;15.50;5.72;;;;;;;;;;7391272;19;19910;-75
2022/12/25 10:15:58;;;;;;;12.27;5.60;;;;;;;;;;7396557;19;19995;-75
2022/12/25 10:18:23;;;;;;;9.93;5.47;;;;;;;;;;7391862;19;20002;-76
2022/12/25 10:20:52;;;;;;;13.60;5.43;;;;;;;;;;7391571;19;20098;-75
2022/12/25 10:23:24;;;;;;;11.63;5.28;;;;;;;;;;7391641;19;20348;-76
2022/12/25 10:25:52;;;;;;;10.98;5.20;;;;;;;;;;7392551;19;20006;-76
2022/12/25 10:28:41;;;;;;;12.52;4.88;;;;;;;;;;7390112;19;20433;-77
2022/12/25 10:31:25;;;;;;;13.05;5.28;;;;;;;;;;7392255;19;20103;-77
2022/12/25 10:33:52;;;;;;;8.60;4.10;;;;;;;;;;7393767;19;20038;-77
2022/12/25 10:36:24;;;;;;;11.88;5.72;;;;;;;;;;7391050;19;20496;-76
2022/12/25 10:38:50;;;;;;;12.48;4.95;;;;;;;;;;7390835;19;20016;-75
2022/12/25 10:41:26;;;;;;;6.90;4.55;;;;;;;;;;7391037;19;19998;-75
2022/12/25 10:43:56;;;;;;;7.47;4.28;;;;;;;;;;7390375;19;20472;-76
2022/12/25 10:46:24;;;;;;;12.00;5.15;;;;;;;;;;7391620;19;20117;-75
2022/12/25 10:48:59;;;;;;;10.68;4.22;;;;;;;;;;7389337;19;20006;-76
2022/12/25 10:51:30;;;;;;;8.15;3.92;;;;;;;;;;7391605;19;20460;-76
2022/12/25 10:53:55;;;;;;;10.38;4.20;;;;;;;;;;7390164;19;20035;-76
2022/12/25 10:56:20;;;;;;;10.15;5.18;;;;;;;;;;7390184;19;19998;-76
2022/12/25 10:58:46;;;;;;;9.40;4.18;;;;;;;;;;7390293;19;20083;-76
2022/12/25 11:01:12;;;;;;;9.80;4.63;;;;;;;;;;7389714;19;20002;-75
2022/12/25 11:03:40;;;;;;;10.57;4.45;;;;;;;;;;7390013;19;20009;-76
2022/12/25 11:06:19;;;;;;;11.77;4.88;;;;;;;;;;7390696;19;20773;-76
2022/12/25 11:08:50;;;;;;;10.90;4.53;;;;;;;;;;7390103;19;20119;-77
2022/12/25 11:11:18;;;;;;;8.90;4.20;;;;;;;;;;7391050;19;20003;-75
2022/12/25 11:13:53;;;;;;;9.52;4.22;;;;;;;;;;7388377;19;20023;-76
2022/12/25 11:16:31;;;;;;;9.07;4.63;;;;;;;;;;7389972;19;20007;-75
2022/12/25 11:18:58;;;;;;;7.85;3.85;;;;;;;;;;7389936;19;20003;-75
2022/12/25 11:21:23;;;;;;;11.32;3.78;;;;;;;;;;7390506;19;20483;-77
2022/12/25 11:23:58;;;;;;;7.18;4.05;;;;;;;;;;7389344;19;20006;-76
2022/12/25 11:26:25;;;;;;;7.68;4.18;;;;;;;;;;7390883;19;20001;-76
2022/12/25 11:28:53;;;;;;;7.22;4.10;;;;;;;;;;7389538;19;20509;-75
2022/12/25 11:31:21;;;;;;;10.43;4.22;;;;;;;;;;7390442;19;19999;-76
2022/12/25 11:33:53;;;;;;;9.90;4.18;;;;;;;;;;7388703;19;20002;-77
2022/12/25 11:36:29;;;;;;;8.35;3.95;;;;;;;;;;7387919;19;19998;-75
2022/12/25 11:38:54;;;;;;;9.68;3.85;;;;;;;;;;7387398;19;19999;-76
2022/12/25 11:41:27;;;;;;;8.98;3.97;;;;;;;;;;7390140;19;20007;-76
2022/12/25 11:43:58;;;;;;;10.50;4.10;;;;;;;;;;7388701;19;20370;-76
2022/12/25 11:46:30;;;;;;;10.05;4.43;;;;;;;;;;7390037;19;20036;-76
2022/12/25 11:49:00;;;;;;;10.02;3.90;;;;;;;;;;7391942;19;20073;-75
2022/12/25 11:51:31;;;;;;;7.63;3.85;;;;;;;;;;7388909;19;20021;-75
2022/12/25 11:54:07;;;;;;;8.73;4.00;;;;;;;;;;7395941;19;20480;-75
2022/12/25 11:56:33;;;;;;;9.70;4.30;;;;;;;;;;7395125;19;20484;-75
2022/12/25 11:59:07;;;;;;;9.68;4.05;;;;;;;;;;7399223;19;19995;-76
2022/12/25 12:01:43;;;;;;;7.78;4.43;;;;;;;;;;7396256;19;20002;-76
2022/12/25 12:04:24;;;;;;;8.20;4.25;;;;;;;;;;7395703;19;20013;-76
2022/12/25 12:06:58;;;;;;;7.35;3.83;;;;;;;;;;7397371;19;20505;-76
2022/12/25 12:09:36;;;;;;;8.27;4.13;;;;;;;;;;7396882;19;19995;-75
2022/12/25 12:12:17;;;;;;;12.73;4.32;;;;;;;;;;7396973;19;20009;-76
2022/12/25 12:14:58;;;;;;;8.10;4.45;;;;;;;;;;7395789;19;20013;-76
2022/12/25 12:17:23;;;;;;;7.18;3.58;;;;;;;;;;7392480;19;20003;-76
2022/12/25 12:19:49;;;;;;;9.68;4.00;;;;;;;;;;7394120;19;20044;-76
2022/12/25 12:22:20;;;;;;;7.90;3.90;;;;;;;;;;7396726;19;20007;-76
2022/12/25 12:24:52;;;;;;;8.65;3.92;;;;;;;;;;7395581;19;20459;-77
2022/12/25 12:27:34;;;;;;;8.82;3.90;;;;;;;;;;7397973;19;20003;-76
2022/12/25 12:30:00;;;;;;;7.13;3.75;;;;;;;;;;7395596;19;19995;-76
2022/12/25 12:32:37;;;;;;;7.43;4.10;;;;;;;;;;7395293;19;19999;-76
2022/12/25 12:35:31;;;;;;;6.60;3.42;;;;;;;;;;7394842;19;20010;-76
2022/12/25 12:38:13;;;;;;;5.60;3.03;;;;;;;;;;7395624;19;20002;-75
2022/12/25 12:40:43;;;;;;;8.77;3.90;;;;;;;;;;7394332;19;20020;-76
2022/12/25 12:43:38;;;;;;;10.30;3.67;;;;;;;;;;7393249;19;20007;-76
2022/12/25 12:46:18;;;;;;;10.30;3.15;;;;;;;;;;7395955;19;20001;-76
2022/12/25 12:48:46;;;;;;;6.68;3.67;;;;;;;;;;7394253;19;20003;-76
2022/12/25 12:51:27;;;;;;;5.88;3.50;;;;;;;;;;7395530;19;20006;-76
2022/12/25 12:54:22;;;;;;;7.28;3.40;;;;;;;;;;7394244;19;20354;-75
2022/12/25 12:57:04;;;;;;;8.13;3.60;;;;;;;;;;7393526;19;20472;-76
2022/12/25 12:59:43;;;;;;;6.13;3.30;;;;;;;;;;7393433;19;20031;-76
2022/12/25 13:02:12;;;;;;;6.25;3.53;;;;;;;;;;7395235;19;20002;-75
2022/12/25 13:04:52;;;;;;;6.22;3.72;;;;;;;;;;7393756;19;19995;-76
2022/12/25 13:07:45;;;;;;;9.00;3.60;;;;;;;;;;7395137;19;20002;-76
2022/12/25 13:10:20;;;;;;;6.35;3.55;;;;;;;;;;7393205;19;20003;-76
2022/12/25 13:12:53;;;;;;;8.60;3.72;;;;;;;;;;7394250;19;19999;-76
2022/12/25 13:15:21;;;;;;;8.70;3.70;;;;;;;;;;7392701;19;19999;-75
2022/12/25 13:17:47;;;;;;;9.88;4.00;;;;;;;;;;7394203;19;20016;-75
2022/12/25 13:20:27;;;;;;;8.68;4.00;;;;;;;;;;7393571;19;20007;-74
2022/12/25 13:22:53;;;;;;;8.23;3.93;;;;;;;;;;7394668;19;20368;-76
2022/12/25 13:25:21;;;;;;;11.07;3.72;;;;;;;;;;7395609;19;20025;-75
2022/12/25 13:27:54;;;;;;;8.45;3.90;;;;;;;;;;7396493;19;19986;-74
2022/12/25 13:30:20;;;;;;;8.13;4.30;;;;;;;;;;7396898;19;20015;-74
2022/12/25 13:32:46;;;;;;;6.90;4.07;;;;;;;;;;7394867;19;20023;-75
2022/12/25 13:35:14;;;;;;;8.60;3.80;;;;;;;;;;7395240;19;20354;-74
2022/12/25 13:37:40;;;;;;;6.95;3.65;;;;;;;;;;7395971;19;20002;-75
2022/12/25 13:40:17;;;;;;;8.93;3.42;;;;;;;;;;7392955;19;19998;-74
2022/12/25 13:42:46;;;;;;;11.45;3.75;;;;;;;;;;7393631;19;20005;-74
2022/12/25 13:45:11;;;;;;;8.00;3.47;;;;;;;;;;7394832;19;19991;-74
2022/12/25 13:47:44;;;;;;;6.83;3.63;;;;;;;;;;7393979;19;20011;-75
2022/12/25 13:50:15;;;;;;;8.15;3.33;;;;;;;;;;7392784;19;20280;-73
2022/12/25 13:52:40;;;;;;;6.85;3.40;;;;;;;;;;7393139;19;19999;-75
2022/12/25 13:55:14;;;;;;;5.93;3.10;;;;;;;;;;7398621;19;20100;-73
2022/12/25 13:57:44;;;;;;;6.25;3.40;;;;;;;;;;7394432;19;20317;-76
2022/12/25 14:00:26;;;;;;;5.60;3.03;;;;;;;;;;7393260;19;20017;-74
2022/12/25 14:02:52;;;;;;;6.55;3.63;;;;;;;;;;7397560;19;21058;-73
2022/12/25 14:05:21;;;;;;;5.72;3.58;;;;;;;;;;7394209;19;19991;-73
2022/12/25 14:07:55;;;;;;;5.95;3.30;;;;;;;;;;7393162;19;20359;-75
2022/12/25 14:10:23;;;;;;;6.97;3.38;;;;;;;;;;7394135;19;20022;-75
2022/12/25 14:12:50;;;;;;;6.88;3.15;;;;;;;;;;7392634;19;19994;-75
2022/12/25 14:15:20;;;;;;;8.20;3.38;;;;;;;;;;7394344;19;19990;-75
2022/12/25 14:17:45;;;;;;;5.35;3.20;;;;;;;;;;7393675;19;20003;-74
2022/12/25 14:20:41;;;;;;;6.45;3.22;;;;;;;;;;7392190;19;20528;-74
2022/12/25 14:23:11;;;;;;;7.25;3.38;;;;;;;;;;7391582;19;20001;-74
2022/12/25 14:25:44;;;;;;;7.00;3.90;;;;;;;;;;7396958;19;20006;-73
2022/12/25 14:28:38;;;;;;;6.35;3.55;;;;;;;;;;7393212;19;20002;-74
2022/12/25 14:31:04;;;;;;;6.45;4.07;;;;;;;;;;7390954;19;20005;-75
2022/12/25 14:33:35;;;;;;;7.63;3.67;;;;;;;;;;7392441;19;20049;-73
2022/12/25 14:36:01;;;;;;;6.65;3.67;;;;;;;;;;7391820;19;20305;-74
2022/12/25 14:38:31;;;;;;;6.18;3.30;;;;;;;;;;7390597;19;19995;-74
2022/12/25 14:41:17;;;;;;;7.15;3.92;;;;;;;;;;7392528;19;20006;-75
2022/12/25 14:43:53;;;;;;;7.20;4.03;;;;;;;;;;7391235;19;20099;-74
2022/12/25 14:46:24;;;;;;;8.25;3.92;;;;;;;;;;7392169;19;20087;-74
2022/12/25 14:49:19;;;;;;;7.95;4.10;;;;;;;;;;7389771;19;20006;-74
2022/12/25 14:51:45;;;;;;;7.75;3.75;;;;;;;;;;7391955;19;20005;-73
2022/12/25 14:54:18;;;;;;;7.30;4.35;;;;;;;;;;7391260;19;20341;-73
2022/12/25 14:56:49;;;;;;;7.18;3.90;;;;;;;;;;7391612;19;20008;-74
2022/12/25 14:59:24;;;;;;;8.07;4.30;;;;;;;;;;7391709;19;19991;-74
2022/12/25 15:01:54;;;;;;;8.48;4.70;;;;;;;;;;7392275;19;19995;-74
2022/12/25 15:04:22;;;;;;;9.57;4.70;;;;;;;;;;7391337;19;19990;-75
2022/12/25 15:06:59;;;;;;;10.55;4.75;;;;;;;;;;7392122;19;20002;-75
2022/12/25 15:09:26;;;;;;;12.65;4.50;;;;;;;;;;7391244;19;20015;-75
2022/12/25 15:11:54;;;;;;;8.27;4.63;;;;;;;;;;7392119;19;20099;-75
2022/12/25 15:14:20;;;;;;;11.38;4.82;;;;;;;;;;7390472;19;19994;-75
2022/12/25 15:16:48;;;;;;;12.35;5.38;;;;;;;;;;7388989;19;20460;-74
2022/12/25 15:19:23;;;;;;;10.25;5.07;;;;;;;;;;7390839;19;20018;-75
2022/12/25 15:21:48;;;;;;;8.07;4.78;;;;;;;;;;7391757;19;19994;-74
2022/12/25 15:24:14;;;;;;;10.50;4.95;;;;;;;;;;7390502;19;20076;-76
2022/12/25 15:26:40;;;;;;;8.88;5.22;;;;;;;;;;7388967;19;19999;-74
2022/12/25 15:29:06;;;;;;;10.68;4.47;;;;;;;;;;7389948;19;20014;-74
2022/12/25 15:31:34;;;;;;;12.15;5.65;;;;;;;;;;7390976;19;20003;-74
2022/12/25 15:34:02;;;;;;;10.23;5.72;;;;;;;;;;7388510;19;20341;-74
2022/12/25 15:36:28;;;;;;;14.27;5.10;;;;;;;;;;7390294;19;20050;-74
2022/12/25 15:38:54;;;;;;;9.82;4.90;;;;;;;;;;7390153;19;20003;-74
2022/12/25 15:44:11;;;;;;;10.95;5.32;;;;;;;;;;7390392;19;20026;-74
2022/12/25 15:46:37;;;;;;;11.00;4.97;;;;;;;;;;7391835;19;19998;-73
2022/12/25 15:49:03;;;;;;;9.55;5.20;;;;;;;;;;7391046;19;20002;-73
2022/12/25 15:51:28;;;;;;;10.73;5.35;;;;;;;;;;7391512;19;20283;-74
2022/12/25 15:53:54;;;;;;;12.85;5.75;;;;;;;;;;7390321;19;19991;-73
2022/12/25 15:56:20;;;;;;;9.13;5.43;;;;;;;;;;7394298;19;20452;-73
2022/12/25 15:58:45;;;;;;;10.65;5.53;;;;;;;;;;7391261;19;20014;-73
2022/12/25 16:01:15;;;;;;;11.20;5.75;;;;;;;;;;7393119;19;19991;-74
2022/12/25 16:03:42;;;;;;;11.88;6.05;;;;;;;;;;7392609;19;19995;-75
2022/12/25 16:06:12;;;;;;;11.82;5.75;;;;;;;;;;7392733;19;20025;-75
2022/12/25 16:08:38;;;;;;;10.20;5.68;;;;;;;;;;7389089;19;20002;-74
2022/12/25 16:11:03;;;;;;;13.25;5.53;;;;;;;;;;7390645;19;20003;-74
2022/12/25 16:13:29;;;;;;;10.50;5.50;;;;;;;;;;7389541;19;19991;-74
2022/12/25 16:15:54;;;;;;;10.48;5.53;;;;;;;;;;7392088;19;19998;-74
2022/12/25 16:18:20;;;;;;;12.07;5.20;;;;;;;;;;7389652;19;20006;-74
2022/12/25 16:20:46;;;;;;;10.20;5.32;;;;;;;;;;7390261;19;19995;-74
2022/12/25 16:23:11;;;;;;;11.85;5.90;;;;;;;;;;7387932;19;20011;-75
2022/12/25 16:25:36;;;;;;;9.15;5.13;;;;;;;;;;7388737;19;20380;-74
2022/12/25 16:28:02;;;;;;;9.68;6.00;;;;;;;;;;7389525;19;20343;-73
2022/12/25 16:30:27;;;;;;;8.73;5.45;;;;;;;;;;7390240;19;20341;-74
2022/12/25 16:32:53;;;;;;;9.32;5.30;;;;;;;;;;7388307;19;19991;-75
2022/12/25 16:35:18;;;;;;;8.35;5.20;;;;;;;;;;7393859;19;20036;-73